sensor_id;sensor_type;location;lat;lon;timestamp;P1;durP1;ratioP1;P2;durP2;ratioP2
49366;SDS011;35245;52.026;8.540;2022-12-24T00:00:33;14.90;;;5.60;;
49366;SDS011;35245;52.026;8.540;2022-12-24T00:03:02;13.27;;;5.38;;
49366;SDS011;35245;52.026;8.540;2022-12-24T00:05:29;18.60;;;5.65;;
49366;SDS011;35245;52.026;8.540;2022-12-24T00:07:57;10.68;;;5.80;;
49366;SDS011;35245;52.026;8.540;2022-12-24T00:10:24;15.27;;;5.07;;
49366;SDS011;35245;52.026;8.540;2022-12-24T00:12:51;13.75;;;5.55;;
49366;SDS011;35245;52.026;8.540;2022-12-24T00:15:18;17.67;;;5.15;;
49366;SDS011;35245;52.026;8.540;2022-12-24T00:17:45;21.38;;;6.53;;
49366;SDS011;35245;52.026;8.540;2022-12-24T00:20:14;22.83;;;8.02;;
49366;SDS011;35245;52.026;8.540;2022-12-24T00:22:42;19.75;;;7.88;;
49366;SDS011;35245;52.026;8.540;2022-12-24T00:25:09;16.30;;;7.18;;
49366;SDS011;35245;52.026;8.540;2022-12-24T00:27:37;13.90;;;6.00;;
49366;SDS011;35245;52.026;8.540;2022-12-24T00:30:05;20.13;;;7.10;;
49366;SDS011;35245;52.026;8.540;2022-12-24T00:32:34;19.77;;;6.63;;
49366;SDS011;35245;52.026;8.540;2022-12-24T00:35:01;12.90;;;5.78;;
49366;SDS011;35245;52.026;8.540;2022-12-24T00:37:30;16.05;;;5.50;;
49366;SDS011;35245;52.026;8.540;2022-12-24T00:39:57;13.02;;;6.13;;
49366;SDS011;35245;52.026;8.540;2022-12-24T00:42:25;18.88;;;5.68;;
49366;SDS011;35245;52.026;8.540;2022-12-24T00:44:52;25.48;;;12.25;;
49366;SDS011;35245;52.026;8.540;2022-12-24T00:47:20;14.15;;;4.30;;
49366;SDS011;35245;52.026;8.540;2022-12-24T00:49:47;13.00;;;4.40;;
49366;SDS011;35245;52.026;8.540;2022-12-24T00:52:14;14.13;;;4.53;;
49366;SDS011;35245;52.026;8.540;2022-12-24T00:54:43;12.88;;;4.13;;
49366;SDS011;35245;52.026;8.540;2022-12-24T00:57:10;17.98;;;9.18;;
49366;SDS011;35245;52.026;8.540;2022-12-24T00:59:37;12.25;;;4.20;;
49366;SDS011;35245;52.026;8.540;2022-12-24T01:02:05;16.48;;;3.83;;
49366;SDS011;35245;52.026;8.540;2022-12-24T01:04:32;14.10;;;5.45;;
49366;SDS011;35245;52.026;8.540;2022-12-24T01:07:17;19.02;;;4.80;;
49366;SDS011;35245;52.026;8.540;2022-12-24T01:09:46;14.40;;;4.32;;
49366;SDS011;35245;52.026;8.540;2022-12-24T01:12:13;13.60;;;4.50;;
49366;SDS011;35245;52.026;8.540;2022-12-24T01:14:40;12.73;;;3.88;;
49366;SDS011;35245;52.026;8.540;2022-12-24T01:17:08;18.60;;;5.03;;
49366;SDS011;35245;52.026;8.540;2022-12-24T01:19:35;16.77;;;4.68;;
49366;SDS011;35245;52.026;8.540;2022-12-24T01:22:02;18.23;;;4.95;;
49366;SDS011;35245;52.026;8.540;2022-12-24T01:24:29;15.23;;;5.15;;
49366;SDS011;35245;52.026;8.540;2022-12-24T01:26:58;23.90;;;5.53;;
49366;SDS011;35245;52.026;8.540;2022-12-24T01:29:25;14.75;;;5.38;;
49366;SDS011;35245;52.026;8.540;2022-12-24T01:31:52;16.63;;;5.57;;
49366;SDS011;35245;52.026;8.540;2022-12-24T01:34:20;23.83;;;6.40;;
49366;SDS011;35245;52.026;8.540;2022-12-24T01:36:47;21.25;;;5.70;;
49366;SDS011;35245;52.026;8.540;2022-12-24T01:39:14;18.85;;;5.15;;
49366;SDS011;35245;52.026;8.540;2022-12-24T01:41:41;19.55;;;5.75;;
49366;SDS011;35245;52.026;8.540;2022-12-24T01:44:28;21.33;;;4.75;;
49366;SDS011;35245;52.026;8.540;2022-12-24T01:46:58;19.27;;;4.57;;
49366;SDS011;35245;52.026;8.540;2022-12-24T01:49:33;18.90;;;4.85;;
49366;SDS011;35245;52.026;8.540;2022-12-24T01:52:02;22.48;;;5.15;;
49366;SDS011;35245;52.026;8.540;2022-12-24T01:54:33;18.88;;;5.28;;
49366;SDS011;35245;52.026;8.540;2022-12-24T01:57:06;21.63;;;6.40;;
49366;SDS011;35245;52.026;8.540;2022-12-24T01:59:39;27.65;;;6.18;;
49366;SDS011;35245;52.026;8.540;2022-12-24T02:02:09;26.80;;;6.85;;
49366;SDS011;35245;52.026;8.540;2022-12-24T02:04:39;20.95;;;5.82;;
49366;SDS011;35245;52.026;8.540;2022-12-24T02:07:12;22.75;;;6.65;;
49366;SDS011;35245;52.026;8.540;2022-12-24T02:09:40;26.95;;;6.05;;
49366;SDS011;35245;52.026;8.540;2022-12-24T02:12:07;25.45;;;6.85;;
49366;SDS011;35245;52.026;8.540;2022-12-24T02:14:35;32.15;;;6.45;;
49366;SDS011;35245;52.026;8.540;2022-12-24T02:17:07;31.38;;;6.93;;
49366;SDS011;35245;52.026;8.540;2022-12-24T02:19:48;27.00;;;6.93;;
49366;SDS011;35245;52.026;8.540;2022-12-24T02:22:53;29.13;;;6.53;;
49366;SDS011;35245;52.026;8.540;2022-12-24T02:26:02;29.98;;;7.57;;
49366;SDS011;35245;52.026;8.540;2022-12-24T02:28:55;29.15;;;6.93;;
49366;SDS011;35245;52.026;8.540;2022-12-24T02:32:06;34.88;;;7.65;;
49366;SDS011;35245;52.026;8.540;2022-12-24T02:34:41;30.48;;;7.38;;
49366;SDS011;35245;52.026;8.540;2022-12-24T02:37:15;28.15;;;7.07;;
49366;SDS011;35245;52.026;8.540;2022-12-24T02:39:49;34.63;;;9.15;;
49366;SDS011;35245;52.026;8.540;2022-12-24T02:42:20;47.50;;;9.48;;
49366;SDS011;35245;52.026;8.540;2022-12-24T02:44:53;33.17;;;9.25;;
49366;SDS011;35245;52.026;8.540;2022-12-24T02:47:26;36.90;;;10.88;;
49366;SDS011;35245;52.026;8.540;2022-12-24T02:49:55;33.53;;;8.43;;
49366;SDS011;35245;52.026;8.540;2022-12-24T02:52:29;32.55;;;8.90;;
49366;SDS011;35245;52.026;8.540;2022-12-24T02:55:01;28.02;;;9.65;;
49366;SDS011;35245;52.026;8.540;2022-12-24T02:57:37;30.38;;;8.48;;
49366;SDS011;35245;52.026;8.540;2022-12-24T03:00:19;28.25;;;9.05;;
49366;SDS011;35245;52.026;8.540;2022-12-24T03:02:54;40.05;;;9.50;;
49366;SDS011;35245;52.026;8.540;2022-12-24T03:05:40;35.17;;;8.43;;
49366;SDS011;35245;52.026;8.540;2022-12-24T03:08:14;36.65;;;10.23;;
49366;SDS011;35245;52.026;8.540;2022-12-24T03:10:54;36.13;;;12.25;;
49366;SDS011;35245;52.026;8.540;2022-12-24T03:13:27;35.20;;;11.10;;
49366;SDS011;35245;52.026;8.540;2022-12-24T03:15:54;29.15;;;8.57;;
49366;SDS011;35245;52.026;8.540;2022-12-24T03:18:24;28.20;;;8.52;;
49366;SDS011;35245;52.026;8.540;2022-12-24T03:20:55;38.85;;;10.13;;
49366;SDS011;35245;52.026;8.540;2022-12-24T03:23:30;32.45;;;11.57;;
49366;SDS011;35245;52.026;8.540;2022-12-24T03:25:59;29.73;;;8.00;;
49366;SDS011;35245;52.026;8.540;2022-12-24T03:30:59;34.53;;;9.40;;
49366;SDS011;35245;52.026;8.540;2022-12-24T03:33:30;38.40;;;8.65;;
49366;SDS011;35245;52.026;8.540;2022-12-24T03:35:57;34.60;;;10.75;;
49366;SDS011;35245;52.026;8.540;2022-12-24T03:38:25;26.90;;;7.38;;
49366;SDS011;35245;52.026;8.540;2022-12-24T03:40:52;32.80;;;9.07;;
49366;SDS011;35245;52.026;8.540;2022-12-24T03:43:20;28.13;;;7.82;;
49366;SDS011;35245;52.026;8.540;2022-12-24T03:45:47;26.92;;;7.20;;
49366;SDS011;35245;52.026;8.540;2022-12-24T03:48:14;37.80;;;8.70;;
49366;SDS011;35245;52.026;8.540;2022-12-24T03:50:43;37.50;;;7.78;;
49366;SDS011;35245;52.026;8.540;2022-12-24T03:53:11;29.45;;;6.82;;
49366;SDS011;35245;52.026;8.540;2022-12-24T03:55:38;26.02;;;6.95;;
49366;SDS011;35245;52.026;8.540;2022-12-24T03:58:06;31.38;;;6.88;;
49366;SDS011;35245;52.026;8.540;2022-12-24T04:00:33;36.13;;;8.70;;
49366;SDS011;35245;52.026;8.540;2022-12-24T04:03:01;32.33;;;7.18;;
49366;SDS011;35245;52.026;8.540;2022-12-24T04:05:28;34.60;;;6.65;;
49366;SDS011;35245;52.026;8.540;2022-12-24T04:07:57;28.08;;;7.00;;
49366;SDS011;35245;52.026;8.540;2022-12-24T04:10:25;33.85;;;6.88;;
49366;SDS011;35245;52.026;8.540;2022-12-24T04:12:52;29.50;;;7.70;;
49366;SDS011;35245;52.026;8.540;2022-12-24T04:15:19;37.13;;;7.35;;
49366;SDS011;35245;52.026;8.540;2022-12-24T04:17:47;39.30;;;8.13;;
49366;SDS011;35245;52.026;8.540;2022-12-24T04:20:14;30.95;;;7.80;;
49366;SDS011;35245;52.026;8.540;2022-12-24T04:22:41;30.27;;;7.78;;
49366;SDS011;35245;52.026;8.540;2022-12-24T04:25:10;37.28;;;7.75;;
49366;SDS011;35245;52.026;8.540;2022-12-24T04:27:37;28.90;;;7.47;;
49366;SDS011;35245;52.026;8.540;2022-12-24T04:30:05;32.25;;;8.70;;
49366;SDS011;35245;52.026;8.540;2022-12-24T04:32:34;36.33;;;8.25;;
49366;SDS011;35245;52.026;8.540;2022-12-24T04:35:01;24.77;;;7.13;;
49366;SDS011;35245;52.026;8.540;2022-12-24T04:37:29;31.33;;;7.75;;
49366;SDS011;35245;52.026;8.540;2022-12-24T04:39:56;38.50;;;7.97;;
49366;SDS011;35245;52.026;8.540;2022-12-24T04:42:24;37.28;;;7.43;;
49366;SDS011;35245;52.026;8.540;2022-12-24T04:44:52;42.63;;;8.48;;
49366;SDS011;35245;52.026;8.540;2022-12-24T04:47:19;39.88;;;8.35;;
49366;SDS011;35245;52.026;8.540;2022-12-24T04:49:47;34.38;;;7.60;;
49366;SDS011;35245;52.026;8.540;2022-12-24T04:52:14;36.58;;;7.93;;
49366;SDS011;35245;52.026;8.540;2022-12-24T04:54:42;31.60;;;7.53;;
49366;SDS011;35245;52.026;8.540;2022-12-24T04:57:09;29.83;;;7.20;;
49366;SDS011;35245;52.026;8.540;2022-12-24T04:59:38;36.20;;;7.38;;
49366;SDS011;35245;52.026;8.540;2022-12-24T05:02:05;32.38;;;7.38;;
49366;SDS011;35245;52.026;8.540;2022-12-24T05:04:32;33.08;;;7.55;;
49366;SDS011;35245;52.026;8.540;2022-12-24T05:06:59;37.85;;;7.20;;
49366;SDS011;35245;52.026;8.540;2022-12-24T05:09:27;36.40;;;7.70;;
49366;SDS011;35245;52.026;8.540;2022-12-24T05:11:54;30.08;;;6.80;;
49366;SDS011;35245;52.026;8.540;2022-12-24T05:14:21;36.22;;;8.07;;
49366;SDS011;35245;52.026;8.540;2022-12-24T05:16:50;27.33;;;7.50;;
49366;SDS011;35245;52.026;8.540;2022-12-24T05:19:18;29.33;;;6.68;;
49366;SDS011;35245;52.026;8.540;2022-12-24T05:21:46;31.77;;;7.43;;
49366;SDS011;35245;52.026;8.540;2022-12-24T05:24:33;35.85;;;6.93;;
49366;SDS011;35245;52.026;8.540;2022-12-24T05:27:18;34.60;;;7.68;;
49366;SDS011;35245;52.026;8.540;2022-12-24T05:29:45;39.03;;;7.47;;
49366;SDS011;35245;52.026;8.540;2022-12-24T05:32:14;34.83;;;7.97;;
49366;SDS011;35245;52.026;8.540;2022-12-24T05:34:41;34.70;;;7.93;;
49366;SDS011;35245;52.026;8.540;2022-12-24T05:37:09;32.28;;;8.32;;
49366;SDS011;35245;52.026;8.540;2022-12-24T05:39:36;37.30;;;7.97;;
49366;SDS011;35245;52.026;8.540;2022-12-24T05:42:04;37.83;;;7.72;;
49366;SDS011;35245;52.026;8.540;2022-12-24T05:44:31;38.05;;;8.43;;
49366;SDS011;35245;52.026;8.540;2022-12-24T05:46:58;30.23;;;7.85;;
49366;SDS011;35245;52.026;8.540;2022-12-24T05:49:27;36.55;;;9.43;;
49366;SDS011;35245;52.026;8.540;2022-12-24T05:51:55;52.60;;;16.25;;
49366;SDS011;35245;52.026;8.540;2022-12-24T05:54:22;42.60;;;10.50;;
49366;SDS011;35245;52.026;8.540;2022-12-24T05:56:50;37.92;;;9.20;;
49366;SDS011;35245;52.026;8.540;2022-12-24T05:59:17;30.20;;;10.18;;
49366;SDS011;35245;52.026;8.540;2022-12-24T06:01:44;37.13;;;11.75;;
49366;SDS011;35245;52.026;8.540;2022-12-24T06:04:12;36.65;;;10.23;;
49366;SDS011;35245;52.026;8.540;2022-12-24T06:06:41;37.60;;;11.10;;
49366;SDS011;35245;52.026;8.540;2022-12-24T06:09:08;46.13;;;17.42;;
49366;SDS011;35245;52.026;8.540;2022-12-24T06:11:36;46.97;;;13.55;;
49366;SDS011;35245;52.026;8.540;2022-12-24T06:14:03;37.22;;;11.82;;
49366;SDS011;35245;52.026;8.540;2022-12-24T06:16:30;44.85;;;10.68;;
49366;SDS011;35245;52.026;8.540;2022-12-24T06:18:57;43.30;;;10.73;;
49366;SDS011;35245;52.026;8.540;2022-12-24T06:21:25;45.28;;;10.25;;
49366;SDS011;35245;52.026;8.540;2022-12-24T06:23:54;48.05;;;13.45;;
49366;SDS011;35245;52.026;8.540;2022-12-24T06:26:21;38.70;;;12.32;;
49366;SDS011;35245;52.026;8.540;2022-12-24T06:28:49;38.55;;;9.75;;
49366;SDS011;35245;52.026;8.540;2022-12-24T06:31:18;36.95;;;10.05;;
49366;SDS011;35245;52.026;8.540;2022-12-24T06:33:47;39.15;;;11.63;;
49366;SDS011;35245;52.026;8.540;2022-12-24T06:36:15;52.42;;;15.57;;
49366;SDS011;35245;52.026;8.540;2022-12-24T06:38:44;41.55;;;12.18;;
49366;SDS011;35245;52.026;8.540;2022-12-24T06:41:13;40.70;;;10.65;;
49366;SDS011;35245;52.026;8.540;2022-12-24T06:43:42;37.22;;;10.65;;
49366;SDS011;35245;52.026;8.540;2022-12-24T06:46:10;40.20;;;13.77;;
49366;SDS011;35245;52.026;8.540;2022-12-24T06:48:38;42.20;;;12.55;;
49366;SDS011;35245;52.026;8.540;2022-12-24T06:51:06;42.63;;;11.57;;
49366;SDS011;35245;52.026;8.540;2022-12-24T06:53:33;41.67;;;11.43;;
49366;SDS011;35245;52.026;8.540;2022-12-24T06:56:01;41.90;;;12.15;;
49366;SDS011;35245;52.026;8.540;2022-12-24T06:58:30;36.70;;;10.40;;
49366;SDS011;35245;52.026;8.540;2022-12-24T07:00:59;39.65;;;11.93;;
49366;SDS011;35245;52.026;8.540;2022-12-24T07:03:27;34.58;;;10.20;;
49366;SDS011;35245;52.026;8.540;2022-12-24T07:05:54;37.28;;;13.02;;
49366;SDS011;35245;52.026;8.540;2022-12-24T07:08:22;42.72;;;11.77;;
49366;SDS011;35245;52.026;8.540;2022-12-24T07:10:49;37.03;;;10.27;;
49366;SDS011;35245;52.026;8.540;2022-12-24T07:13:17;40.95;;;10.63;;
49366;SDS011;35245;52.026;8.540;2022-12-24T07:15:46;38.10;;;10.93;;
49366;SDS011;35245;52.026;8.540;2022-12-24T07:18:22;32.67;;;10.57;;
49366;SDS011;35245;52.026;8.540;2022-12-24T07:20:49;35.70;;;11.70;;
49366;SDS011;35245;52.026;8.540;2022-12-24T07:23:16;31.83;;;9.57;;
49366;SDS011;35245;52.026;8.540;2022-12-24T07:25:43;36.03;;;10.85;;
49366;SDS011;35245;52.026;8.540;2022-12-24T07:28:10;30.40;;;10.07;;
49366;SDS011;35245;52.026;8.540;2022-12-24T07:30:38;37.88;;;10.75;;
49366;SDS011;35245;52.026;8.540;2022-12-24T07:33:06;40.10;;;11.40;;
49366;SDS011;35245;52.026;8.540;2022-12-24T07:35:33;42.75;;;12.60;;
49366;SDS011;35245;52.026;8.540;2022-12-24T07:38:01;40.65;;;12.95;;
49366;SDS011;35245;52.026;8.540;2022-12-24T07:40:28;49.65;;;14.25;;
49366;SDS011;35245;52.026;8.540;2022-12-24T07:42:55;46.30;;;13.65;;
49366;SDS011;35245;52.026;8.540;2022-12-24T07:45:22;45.17;;;13.15;;
49366;SDS011;35245;52.026;8.540;2022-12-24T07:47:50;44.90;;;14.52;;
49366;SDS011;35245;52.026;8.540;2022-12-24T07:50:18;49.47;;;15.50;;
49366;SDS011;35245;52.026;8.540;2022-12-24T07:52:45;39.60;;;16.50;;
49366;SDS011;35245;52.026;8.540;2022-12-24T07:55:13;48.88;;;17.17;;
49366;SDS011;35245;52.026;8.540;2022-12-24T07:57:40;59.80;;;22.70;;
49366;SDS011;35245;52.026;8.540;2022-12-24T08:00:08;55.35;;;20.00;;
49366;SDS011;35245;52.026;8.540;2022-12-24T08:02:37;51.47;;;16.75;;
49366;SDS011;35245;52.026;8.540;2022-12-24T08:05:05;49.17;;;16.27;;
49366;SDS011;35245;52.026;8.540;2022-12-24T08:07:34;45.53;;;16.17;;
49366;SDS011;35245;52.026;8.540;2022-12-24T08:10:02;53.10;;;21.13;;
49366;SDS011;35245;52.026;8.540;2022-12-24T08:12:30;55.08;;;21.63;;
49366;SDS011;35245;52.026;8.540;2022-12-24T08:14:57;44.67;;;18.38;;
49366;SDS011;35245;52.026;8.540;2022-12-24T08:17:24;39.38;;;16.80;;
49366;SDS011;35245;52.026;8.540;2022-12-24T08:19:51;41.38;;;19.80;;
49366;SDS011;35245;52.026;8.540;2022-12-24T08:22:18;41.67;;;16.25;;
49366;SDS011;35245;52.026;8.540;2022-12-24T08:24:47;31.45;;;12.40;;
49366;SDS011;35245;52.026;8.540;2022-12-24T08:27:14;40.45;;;16.23;;
49366;SDS011;35245;52.026;8.540;2022-12-24T08:29:41;32.30;;;14.75;;
49366;SDS011;35245;52.026;8.540;2022-12-24T08:32:08;30.25;;;14.02;;
49366;SDS011;35245;52.026;8.540;2022-12-24T08:34:36;45.58;;;18.83;;
49366;SDS011;35245;52.026;8.540;2022-12-24T08:37:03;44.40;;;18.33;;
49366;SDS011;35245;52.026;8.540;2022-12-24T08:39:30;47.60;;;22.25;;
49366;SDS011;35245;52.026;8.540;2022-12-24T08:41:59;55.53;;;25.70;;
49366;SDS011;35245;52.026;8.540;2022-12-24T08:44:26;46.55;;;23.58;;
49366;SDS011;35245;52.026;8.540;2022-12-24T08:46:53;50.25;;;22.63;;
49366;SDS011;35245;52.026;8.540;2022-12-24T08:49:20;50.88;;;20.42;;
49366;SDS011;35245;52.026;8.540;2022-12-24T08:51:48;47.75;;;23.10;;
49366;SDS011;35245;52.026;8.540;2022-12-24T08:54:16;47.38;;;21.33;;
49366;SDS011;35245;52.026;8.540;2022-12-24T08:56:44;53.55;;;26.63;;
49366;SDS011;35245;52.026;8.540;2022-12-24T08:59:12;55.85;;;25.20;;
49366;SDS011;35245;52.026;8.540;2022-12-24T09:01:39;37.88;;;16.30;;
49366;SDS011;35245;52.026;8.540;2022-12-24T09:04:07;42.97;;;17.38;;
49366;SDS011;35245;52.026;8.540;2022-12-24T09:06:34;51.78;;;18.42;;
49366;SDS011;35245;52.026;8.540;2022-12-24T09:09:03;54.47;;;21.45;;
49366;SDS011;35245;52.026;8.540;2022-12-24T09:11:32;35.25;;;16.92;;
49366;SDS011;35245;52.026;8.540;2022-12-24T09:14:00;37.88;;;17.50;;
49366;SDS011;35245;52.026;8.540;2022-12-24T09:16:29;41.35;;;17.20;;
49366;SDS011;35245;52.026;8.540;2022-12-24T09:18:56;42.30;;;16.50;;
49366;SDS011;35245;52.026;8.540;2022-12-24T09:21:24;35.58;;;16.15;;
49366;SDS011;35245;52.026;8.540;2022-12-24T09:23:52;46.05;;;18.88;;
49366;SDS011;35245;52.026;8.540;2022-12-24T09:26:21;40.58;;;19.55;;
49366;SDS011;35245;52.026;8.540;2022-12-24T09:28:51;49.60;;;20.63;;
49366;SDS011;35245;52.026;8.540;2022-12-24T09:31:18;49.35;;;21.67;;
49366;SDS011;35245;52.026;8.540;2022-12-24T09:33:48;50.08;;;18.00;;
49366;SDS011;35245;52.026;8.540;2022-12-24T09:36:16;52.80;;;19.67;;
49366;SDS011;35245;52.026;8.540;2022-12-24T09:38:44;66.30;;;22.35;;
49366;SDS011;35245;52.026;8.540;2022-12-24T09:41:13;56.03;;;20.63;;
49366;SDS011;35245;52.026;8.540;2022-12-24T09:43:51;51.42;;;17.67;;
49366;SDS011;35245;52.026;8.540;2022-12-24T09:46:25;49.88;;;19.30;;
49366;SDS011;35245;52.026;8.540;2022-12-24T09:49:01;53.25;;;18.33;;
49366;SDS011;35245;52.026;8.540;2022-12-24T09:51:36;48.00;;;16.17;;
49366;SDS011;35245;52.026;8.540;2022-12-24T09:54:10;51.42;;;17.42;;
49366;SDS011;35245;52.026;8.540;2022-12-24T09:56:43;47.38;;;16.83;;
49366;SDS011;35245;52.026;8.540;2022-12-24T09:59:13;41.75;;;16.77;;
49366;SDS011;35245;52.026;8.540;2022-12-24T10:01:43;40.35;;;15.85;;
49366;SDS011;35245;52.026;8.540;2022-12-24T10:04:21;44.13;;;16.50;;
49366;SDS011;35245;52.026;8.540;2022-12-24T10:06:57;51.88;;;15.90;;
49366;SDS011;35245;52.026;8.540;2022-12-24T10:09:30;44.33;;;15.85;;
49366;SDS011;35245;52.026;8.540;2022-12-24T10:12:08;53.85;;;16.30;;
49366;SDS011;35245;52.026;8.540;2022-12-24T10:14:47;36.70;;;14.35;;
49366;SDS011;35245;52.026;8.540;2022-12-24T10:17:29;41.97;;;16.95;;
49366;SDS011;35245;52.026;8.540;2022-12-24T10:20:20;35.97;;;15.63;;
49366;SDS011;35245;52.026;8.540;2022-12-24T10:23:00;32.65;;;14.07;;
49366;SDS011;35245;52.026;8.540;2022-12-24T10:25:34;41.60;;;12.75;;
49366;SDS011;35245;52.026;8.540;2022-12-24T10:28:13;33.80;;;12.32;;
49366;SDS011;35245;52.026;8.540;2022-12-24T10:30:43;40.15;;;11.05;;
49366;SDS011;35245;52.026;8.540;2022-12-24T10:33:17;40.47;;;11.60;;
49366;SDS011;35245;52.026;8.540;2022-12-24T10:35:50;27.55;;;10.05;;
49366;SDS011;35245;52.026;8.540;2022-12-24T10:38:20;31.35;;;10.77;;
49366;SDS011;35245;52.026;8.540;2022-12-24T10:40:48;29.80;;;10.52;;
49366;SDS011;35245;52.026;8.540;2022-12-24T10:43:19;31.40;;;8.95;;
49366;SDS011;35245;52.026;8.540;2022-12-24T10:45:52;31.17;;;9.07;;
49366;SDS011;35245;52.026;8.540;2022-12-24T10:48:25;38.13;;;14.93;;
49366;SDS011;35245;52.026;8.540;2022-12-24T10:50:58;27.85;;;10.32;;
49366;SDS011;35245;52.026;8.540;2022-12-24T10:53:36;36.60;;;10.05;;
49366;SDS011;35245;52.026;8.540;2022-12-24T10:56:08;28.63;;;8.40;;
49366;SDS011;35245;52.026;8.540;2022-12-24T10:58:41;40.00;;;12.80;;
49366;SDS011;35245;52.026;8.540;2022-12-24T11:01:10;30.73;;;10.07;;
49366;SDS011;35245;52.026;8.540;2022-12-24T11:03:38;40.08;;;10.90;;
49366;SDS011;35245;52.026;8.540;2022-12-24T11:06:09;39.00;;;13.30;;
49366;SDS011;35245;52.026;8.540;2022-12-24T11:08:41;39.60;;;15.55;;
49366;SDS011;35245;52.026;8.540;2022-12-24T11:11:10;27.73;;;10.13;;
49366;SDS011;35245;52.026;8.540;2022-12-24T11:13:42;36.15;;;10.60;;
49366;SDS011;35245;52.026;8.540;2022-12-24T11:16:14;31.80;;;9.05;;
49366;SDS011;35245;52.026;8.540;2022-12-24T11:18:47;37.33;;;12.45;;
49366;SDS011;35245;52.026;8.540;2022-12-24T11:21:22;39.10;;;12.50;;
49366;SDS011;35245;52.026;8.540;2022-12-24T11:23:53;30.67;;;7.57;;
49366;SDS011;35245;52.026;8.540;2022-12-24T11:26:24;31.02;;;9.05;;
49366;SDS011;35245;52.026;8.540;2022-12-24T11:29:13;35.28;;;9.98;;
49366;SDS011;35245;52.026;8.540;2022-12-24T11:31:44;30.25;;;7.95;;
49366;SDS011;35245;52.026;8.540;2022-12-24T11:34:18;26.67;;;8.57;;
49366;SDS011;35245;52.026;8.540;2022-12-24T11:37:13;28.13;;;8.20;;
49366;SDS011;35245;52.026;8.540;2022-12-24T11:39:46;28.13;;;7.50;;
49366;SDS011;35245;52.026;8.540;2022-12-24T11:44:51;28.05;;;7.53;;
49366;SDS011;35245;52.026;8.540;2022-12-24T11:47:30;26.15;;;7.85;;
49366;SDS011;35245;52.026;8.540;2022-12-24T11:50:22;31.05;;;7.28;;
49366;SDS011;35245;52.026;8.540;2022-12-24T11:52:59;27.30;;;8.27;;
49366;SDS011;35245;52.026;8.540;2022-12-24T11:55:35;36.88;;;9.18;;
49366;SDS011;35245;52.026;8.540;2022-12-24T11:58:18;28.63;;;8.70;;
49366;SDS011;35245;52.026;8.540;2022-12-24T12:00:56;25.40;;;7.95;;
49366;SDS011;35245;52.026;8.540;2022-12-24T12:03:33;35.38;;;8.20;;
49366;SDS011;35245;52.026;8.540;2022-12-24T12:06:07;30.27;;;8.90;;
49366;SDS011;35245;52.026;8.540;2022-12-24T12:08:54;28.65;;;8.73;;
49366;SDS011;35245;52.026;8.540;2022-12-24T12:11:26;26.65;;;8.02;;
49366;SDS011;35245;52.026;8.540;2022-12-24T12:13:57;27.02;;;8.23;;
49366;SDS011;35245;52.026;8.540;2022-12-24T12:16:29;28.80;;;8.30;;
49366;SDS011;35245;52.026;8.540;2022-12-24T12:19:18;27.15;;;8.45;;
49366;SDS011;35245;52.026;8.540;2022-12-24T12:21:48;30.70;;;9.07;;
49366;SDS011;35245;52.026;8.540;2022-12-24T12:24:20;28.40;;;9.80;;
49366;SDS011;35245;52.026;8.540;2022-12-24T12:26:55;30.92;;;8.38;;
49366;SDS011;35245;52.026;8.540;2022-12-24T12:29:31;27.08;;;8.07;;
49366;SDS011;35245;52.026;8.540;2022-12-24T12:34:33;33.20;;;8.40;;
49366;SDS011;35245;52.026;8.540;2022-12-24T12:37:07;33.75;;;8.75;;
49366;SDS011;35245;52.026;8.540;2022-12-24T12:39:41;31.52;;;10.90;;
49366;SDS011;35245;52.026;8.540;2022-12-24T12:42:10;33.33;;;9.27;;
49366;SDS011;35245;52.026;8.540;2022-12-24T12:44:48;27.40;;;7.15;;
49366;SDS011;35245;52.026;8.540;2022-12-24T12:47:43;24.27;;;7.30;;
49366;SDS011;35245;52.026;8.540;2022-12-24T12:50:35;28.30;;;9.07;;
49366;SDS011;35245;52.026;8.540;2022-12-24T12:53:19;32.30;;;9.88;;
49366;SDS011;35245;52.026;8.540;2022-12-24T12:56:16;35.88;;;10.23;;
49366;SDS011;35245;52.026;8.540;2022-12-24T12:58:56;40.97;;;10.35;;
49366;SDS011;35245;52.026;8.540;2022-12-24T13:01:29;28.83;;;7.70;;
49366;SDS011;35245;52.026;8.540;2022-12-24T13:04:25;25.27;;;7.18;;
49366;SDS011;35245;52.026;8.540;2022-12-24T13:07:37;32.38;;;9.27;;
49366;SDS011;35245;52.026;8.540;2022-12-24T13:10:51;22.17;;;8.05;;
49366;SDS011;35245;52.026;8.540;2022-12-24T13:13:57;31.42;;;7.90;;
49366;SDS011;35245;52.026;8.540;2022-12-24T13:20:09;35.90;;;8.98;;
49366;SDS011;35245;52.026;8.540;2022-12-24T13:22:47;35.35;;;8.40;;
49366;SDS011;35245;52.026;8.540;2022-12-24T13:25:20;24.70;;;6.82;;
49366;SDS011;35245;52.026;8.540;2022-12-24T13:27:51;29.80;;;7.57;;
49366;SDS011;35245;52.026;8.540;2022-12-24T13:30:33;28.90;;;7.05;;
49366;SDS011;35245;52.026;8.540;2022-12-24T13:33:03;22.67;;;7.00;;
49366;SDS011;35245;52.026;8.540;2022-12-24T13:35:37;27.98;;;8.40;;
49366;SDS011;35245;52.026;8.540;2022-12-24T13:38:31;27.75;;;6.50;;
49366;SDS011;35245;52.026;8.540;2022-12-24T13:44:17;28.45;;;7.53;;
49366;SDS011;35245;52.026;8.540;2022-12-24T13:49:21;26.50;;;8.18;;
49366;SDS011;35245;52.026;8.540;2022-12-24T13:52:05;20.20;;;5.30;;
49366;SDS011;35245;52.026;8.540;2022-12-24T13:54:48;32.53;;;9.75;;
49366;SDS011;35245;52.026;8.540;2022-12-24T13:57:41;25.05;;;7.43;;
49366;SDS011;35245;52.026;8.540;2022-12-24T14:00:24;25.85;;;7.90;;
49366;SDS011;35245;52.026;8.540;2022-12-24T14:03:17;28.92;;;8.50;;
49366;SDS011;35245;52.026;8.540;2022-12-24T14:05:54;28.90;;;9.38;;
49366;SDS011;35245;52.026;8.540;2022-12-24T14:08:27;26.25;;;8.55;;
49366;SDS011;35245;52.026;8.540;2022-12-24T14:11:04;30.70;;;7.80;;
49366;SDS011;35245;52.026;8.540;2022-12-24T14:14:00;27.40;;;7.32;;
49366;SDS011;35245;52.026;8.540;2022-12-24T14:16:51;31.02;;;8.57;;
49366;SDS011;35245;52.026;8.540;2022-12-24T14:19:22;34.08;;;8.80;;
49366;SDS011;35245;52.026;8.540;2022-12-24T14:21:55;26.17;;;7.93;;
49366;SDS011;35245;52.026;8.540;2022-12-24T14:24:30;28.20;;;8.70;;
49366;SDS011;35245;52.026;8.540;2022-12-24T14:27:05;24.85;;;8.23;;
49366;SDS011;35245;52.026;8.540;2022-12-24T14:29:42;35.75;;;11.50;;
49366;SDS011;35245;52.026;8.540;2022-12-24T14:32:16;25.33;;;7.15;;
49366;SDS011;35245;52.026;8.540;2022-12-24T14:34:44;31.80;;;7.75;;
49366;SDS011;35245;52.026;8.540;2022-12-24T14:37:12;27.15;;;8.80;;
49366;SDS011;35245;52.026;8.540;2022-12-24T14:39:40;31.25;;;7.72;;
49366;SDS011;35245;52.026;8.540;2022-12-24T14:42:20;29.27;;;9.57;;
49366;SDS011;35245;52.026;8.540;2022-12-24T14:45:03;30.33;;;10.65;;
49366;SDS011;35245;52.026;8.540;2022-12-24T14:47:44;28.98;;;10.07;;
49366;SDS011;35245;52.026;8.540;2022-12-24T14:50:37;33.50;;;9.60;;
49366;SDS011;35245;52.026;8.540;2022-12-24T14:53:24;29.30;;;8.23;;
49366;SDS011;35245;52.026;8.540;2022-12-24T14:56:08;36.45;;;10.40;;
49366;SDS011;35245;52.026;8.540;2022-12-24T14:58:40;29.60;;;10.75;;
49366;SDS011;35245;52.026;8.540;2022-12-24T15:01:20;36.25;;;9.18;;
49366;SDS011;35245;52.026;8.540;2022-12-24T15:06:32;32.17;;;11.30;;
49366;SDS011;35245;52.026;8.540;2022-12-24T15:09:03;49.92;;;17.92;;
49366;SDS011;35245;52.026;8.540;2022-12-24T15:11:31;32.55;;;10.35;;
49366;SDS011;35245;52.026;8.540;2022-12-24T15:13:58;27.48;;;7.97;;
49366;SDS011;35245;52.026;8.540;2022-12-24T15:16:27;31.77;;;9.05;;